Time;durP1;ratioP1;P1;durP2;ratioP2;P2;SDS_P1;SDS_P2;PMS_P1;PMS_P2;Temp;Humidity;BMP_temperature;BMP_pressure;BME280_temperature;BME280_humidity;BME280_pressure;Samples;Min_cycle;Max_cycle;Signal;HPM_P1;HPM_P2
2021/04/25 00:01:11;;;;;;;14.80;7.97;;;;;;;4.23;74.11;102255.09;5050668;28;20078;-84
2021/04/25 00:03:36;;;;;;;13.95;7.70;;;;;;;4.18;74.33;102255.38;5062530;28;20439;-79
2021/04/25 00:06:02;;;;;;;16.02;7.75;;;;;;;4.19;74.42;102264.22;5067457;28;20063;-80
2021/04/25 00:08:28;;;;;;;14.85;7.93;;;;;;;4.15;74.62;102255.56;5049705;28;20098;-83
2021/04/25 00:10:54;;;;;;;12.85;6.80;;;;;;;4.13;74.65;102254.78;5041461;28;20485;-81
2021/04/25 00:13:19;;;;;;;13.23;7.55;;;;;;;4.13;74.47;102260.09;5065576;28;20127;-80
2021/04/25 00:15:45;;;;;;;11.98;7.07;;;;;;;4.11;74.54;102261.13;5064016;28;20470;-82
2021/04/25 00:18:10;;;;;;;13.95;7.30;;;;;;;4.10;74.74;102264.75;5031762;28;20069;-81
2021/04/25 00:20:36;;;;;;;15.65;7.45;;;;;;;4.04;74.80;102256.16;5010683;28;20124;-81
2021/04/25 00:23:01;;;;;;;13.85;6.85;;;;;;;4.05;74.71;102264.97;5048754;28;20147;-78
2021/04/25 00:25:26;;;;;;;15.35;7.65;;;;;;;4.01;74.74;102261.66;5044006;28;20041;-82
2021/04/25 00:27:52;;;;;;;15.40;7.78;;;;;;;3.94;75.13;102260.28;5045411;28;20059;-79
2021/04/25 00:30:20;;;;;;;14.57;7.95;;;;;;;3.91;75.15;102262.25;5045517;28;20132;-78
2021/04/25 00:32:46;;;;;;;14.57;8.43;;;;;;;3.87;75.21;102258.91;5046247;28;20443;-81
2021/04/25 00:35:12;;;;;;;16.23;8.82;;;;;;;3.83;75.62;102260.88;5063548;28;20046;-78
2021/04/25 00:37:38;;;;;;;15.48;8.27;;;;;;;3.78;75.61;102262.94;5064931;28;20446;-78
2021/04/25 00:40:07;;;;;;;14.90;8.48;;;;;;;3.81;75.87;102262.75;5064395;28;20120;-78
2021/04/25 00:42:32;;;;;;;13.95;8.07;;;;;;;3.77;76.11;102263.00;5064422;28;20033;-81
2021/04/25 00:44:59;;;;;;;14.32;7.47;;;;;;;3.77;76.04;102258.56;5063329;28;20120;-79
2021/04/25 00:47:25;;;;;;;18.42;8.57;;;;;;;3.74;75.77;102252.53;5065272;28;20048;-80
2021/04/25 00:49:50;;;;;;;13.10;7.63;;;;;;;3.70;76.12;102251.88;5064225;28;20391;-86
2021/04/25 00:52:15;;;;;;;17.98;7.80;;;;;;;3.71;76.14;102250.94;5064555;28;20105;-79
2021/04/25 00:54:41;;;;;;;15.73;8.57;;;;;;;3.67;76.42;102237.91;5044264;28;20040;-81
2021/04/25 00:57:07;;;;;;;13.85;7.97;;;;;;;3.65;76.52;102243.28;5043096;28;20128;-81
2021/04/25 00:59:33;;;;;;;13.75;7.70;;;;;;;3.64;76.70;102246.91;5064473;28;20045;-74
2021/04/25 01:01:58;;;;;;;15.10;8.05;;;;;;;3.65;76.96;102242.44;5047760;28;20044;-78
2021/04/25 01:04:24;;;;;;;14.35;8.25;;;;;;;3.72;76.68;102247.34;5064124;28;20029;-79
2021/04/25 01:06:49;;;;;;;13.73;7.47;;;;;;;3.76;76.63;102248.88;5050091;28;20097;-81
2021/04/25 01:09:15;;;;;;;10.65;6.28;;;;;;;3.71;76.97;102250.06;5067765;28;20036;-81
2021/04/25 01:11:41;;;;;;;13.80;7.22;;;;;;;3.79;77.16;102245.19;5043065;28;20040;-75
2021/04/25 01:14:06;;;;;;;11.95;7.13;;;;;;;3.86;77.14;102251.88;5048110;28;20032;-78
2021/04/25 01:16:32;;;;;;;12.38;6.82;;;;;;;3.92;76.28;102248.03;5047273;28;20075;-79
2021/04/25 01:18:57;;;;;;;12.73;7.53;;;;;;;3.99;75.83;102249.41;5065215;28;20089;-81
2021/04/25 01:21:23;;;;;;;18.27;7.88;;;;;;;4.03;76.18;102243.00;5065367;28;20152;-78
2021/04/25 01:23:49;;;;;;;17.05;8.02;;;;;;;3.98;75.95;102243.22;5047190;28;20056;-78
2021/04/25 01:26:15;;;;;;;16.67;7.47;;;;;;;4.00;76.04;102249.31;5065967;28;20036;-75
2021/04/25 01:28:42;;;;;;;14.05;8.07;;;;;;;3.99;76.14;102244.94;5064523;28;20729;-80
2021/04/25 01:31:08;;;;;;;13.80;7.38;;;;;;;4.09;75.93;102242.63;5063325;28;20387;-80
2021/04/25 01:33:33;;;;;;;14.77;8.10;;;;;;;4.10;76.16;102246.16;5046250;28;20036;-81
2021/04/25 01:36:00;;;;;;;15.48;7.85;;;;;;;4.13;76.43;102244.16;5045269;28;20545;-77
2021/04/25 01:38:25;;;;;;;12.20;7.75;;;;;;;4.19;75.35;102242.97;5047717;28;20132;-77
2021/04/25 01:40:51;;;;;;;13.65;7.07;;;;;;;4.20;75.09;102248.19;5065705;28;20174;-79
2021/04/25 01:43:16;;;;;;;13.23;7.85;;;;;;;4.25;75.09;102243.44;5066394;28;20476;-76
2021/04/25 01:45:42;;;;;;;16.17;7.85;;;;;;;4.30;75.39;102245.84;5042333;28;20378;-78
2021/04/25 01:48:08;;;;;;;12.30;7.32;;;;;;;4.34;75.01;102246.53;5064202;28;20389;-84
2021/04/25 01:50:35;;;;;;;14.40;7.45;;;;;;;4.33;74.46;102252.81;5024663;28;20041;-81
2021/04/25 01:53:00;;;;;;;11.52;6.78;;;;;;;4.36;74.66;102244.66;5039699;28;20056;-78
2021/04/25 01:55:28;;;;;;;13.98;6.82;;;;;;;4.38;74.22;102245.44;5062925;28;20143;-79
2021/04/25 01:57:54;;;;;;;15.02;7.40;;;;;;;4.42;74.45;102250.47;5047504;28;20447;-76
2021/04/25 02:00:26;;;;;;;14.13;7.57;;;;;;;4.45;73.75;102255.59;5051997;28;20210;-85
2021/04/25 02:02:54;;;;;;;12.25;6.85;;;;;;;4.48;73.89;102243.94;5066543;28;20113;-78
2021/04/25 02:05:20;;;;;;;13.63;7.82;;;;;;;4.52;74.39;102241.03;5068974;28;20366;-76
2021/04/25 02:07:46;;;;;;;13.68;6.72;;;;;;;4.50;73.67;102240.25;5067266;28;20048;-80
2021/04/25 02:10:12;;;;;;;11.35;7.00;;;;;;;4.49;74.07;102243.00;5063832;28;20040;-78
2021/04/25 02:12:37;;;;;;;14.70;7.97;;;;;;;4.54;73.55;102238.25;5064169;28;20122;-75
2021/04/25 02:15:05;;;;;;;12.05;7.40;;;;;;;4.51;74.03;102238.44;5064681;28;20052;-84
2021/04/25 02:17:30;;;;;;;10.65;7.00;;;;;;;4.53;73.76;102241.88;5049604;28;20059;-77
2021/04/25 02:19:56;;;;;;;16.05;7.40;;;;;;;4.50;74.09;102226.94;5068413;28;20477;-79
2021/04/25 02:22:22;;;;;;;12.60;7.25;;;;;;;4.55;73.75;102232.00;5048787;28;20382;-80
2021/04/25 02:24:47;;;;;;;12.98;6.72;;;;;;;4.56;73.91;102227.53;5045880;28;20302;-77
2021/04/25 02:27:13;;;;;;;12.45;6.93;;;;;;;4.55;74.09;102231.16;5045139;28;20498;-81
2021/04/25 02:29:38;;;;;;;13.48;7.60;;;;;;;4.57;74.12;102235.41;5047232;28;20047;-81
2021/04/25 02:32:04;;;;;;;12.73;7.05;;;;;;;4.60;74.06;102231.72;5045604;28;20059;-85
2021/04/25 02:34:29;;;;;;;12.32;6.95;;;;;;;4.60;73.80;102239.69;5060913;28;20040;-80
2021/04/25 02:36:55;;;;;;;13.95;7.07;;;;;;;4.64;73.72;102236.78;5027755;28;20040;-83
2021/04/25 02:39:20;;;;;;;12.95;7.35;;;;;;;4.67;73.46;102239.25;5046141;28;20414;-82
2021/04/25 02:41:46;;;;;;;14.13;7.00;;;;;;;4.69;73.58;102239.16;5046408;28;20047;-78
2021/04/25 02:44:13;;;;;;;14.05;7.35;;;;;;;4.70;73.85;102240.88;5041306;28;20040;-80
2021/04/25 02:46:38;;;;;;;14.82;7.70;;;;;;;4.75;74.24;102247.63;5067092;28;20042;-81
2021/04/25 02:49:04;;;;;;;13.23;7.57;;;;;;;4.76;74.59;102237.84;5049411;28;20041;-78
2021/04/25 02:51:29;;;;;;;14.27;7.20;;;;;;;4.76;73.77;102240.50;5049202;28;20386;-80
2021/04/25 02:53:54;;;;;;;14.27;7.10;;;;;;;4.73;74.25;102241.53;5032245;28;20044;-78
2021/04/25 02:56:20;;;;;;;15.13;8.18;;;;;;;4.73;74.33;102244.22;5032384;28;20040;-78
2021/04/25 02:58:45;;;;;;;18.17;9.45;;;;;;;4.71;74.60;102245.25;5067083;28;20171;-78
2021/04/25 03:01:11;;;;;;;16.27;8.27;;;;;;;4.71;74.54;102243.44;5067679;28;20048;-76
2021/04/25 03:03:36;;;;;;;13.20;7.53;;;;;;;4.74;74.47;102240.59;5067344;28;20445;-78
2021/04/25 03:06:02;;;;;;;14.25;7.18;;;;;;;4.76;74.42;102240.50;5069030;28;20044;-77
2021/04/25 03:08:27;;;;;;;13.68;7.55;;;;;;;4.74;74.17;102232.59;5066686;28;20051;-78
2021/04/25 03:10:52;;;;;;;15.73;6.97;;;;;;;4.79;74.49;102231.50;5068421;28;20408;-77
2021/04/25 03:13:18;;;;;;;12.30;6.57;;;;;;;4.79;74.61;102228.84;5050082;28;20055;-76
2021/04/25 03:15:43;;;;;;;12.82;7.03;;;;;;;4.81;73.68;102234.94;5049641;28;20048;-81
2021/04/25 03:18:09;;;;;;;12.50;7.07;;;;;;;4.83;73.18;102235.66;5067094;28;20073;-84
2021/04/25 03:20:34;;;;;;;14.27;6.93;;;;;;;4.87;73.16;102229.25;5066657;28;20404;-82
2021/04/25 03:23:00;;;;;;;11.23;6.55;;;;;;;4.89;72.87;102235.31;5068367;28;20455;-81
2021/04/25 03:25:25;;;;;;;11.57;7.18;;;;;;;4.85;73.01;102231.97;5064916;28;20501;-80
2021/04/25 03:27:52;;;;;;;11.30;6.47;;;;;;;4.84;72.46;102234.75;5049408;28;20040;-79
2021/04/25 03:30:18;;;;;;;12.40;7.28;;;;;;;4.89;72.32;102240.63;5064839;28;20041;-80
2021/04/25 03:32:44;;;;;;;13.05;6.28;;;;;;;4.89;72.13;102238.84;5069073;28;20044;-79
2021/04/25 03:35:12;;;;;;;12.65;6.80;;;;;;;4.92;72.21;102246.63;5066844;28;20481;-79
2021/04/25 03:37:38;;;;;;;12.02;6.00;;;;;;;4.91;72.46;102241.41;5066197;28;20029;-77
2021/04/25 03:40:06;;;;;;;10.63;5.75;;;;;;;4.88;72.22;102237.13;5065417;28;20400;-83
2021/04/25 03:42:32;;;;;;;10.25;5.53;;;;;;;4.90;71.90;102240.53;5060019;28;20055;-78
2021/04/25 03:44:57;;;;;;;10.32;5.25;;;;;;;4.91;71.69;102241.41;5065396;28;20048;-79
2021/04/25 03:47:23;;;;;;;9.73;5.82;;;;;;;4.91;71.56;102228.94;5052320;28;20040;-78
2021/04/25 03:49:48;;;;;;;9.82;5.05;;;;;;;4.89;71.28;102238.84;5049092;28;20029;-81
2021/04/25 03:52:14;;;;;;;12.95;4.32;;;;;;;4.88;70.73;102230.94;5067214;28;20051;-81
2021/04/25 03:54:40;;;;;;;10.27;4.72;;;;;;;4.88;69.70;102231.78;5066422;28;20072;-80
2021/04/25 03:57:06;;;;;;;8.77;4.07;;;;;;;4.84;68.87;102230.28;5067253;28;20044;-84
2021/04/25 03:59:32;;;;;;;7.15;4.00;;;;;;;4.84;68.54;102230.28;5047589;28;20505;-80
2021/04/25 04:01:57;;;;;;;7.65;4.10;;;;;;;4.84;68.96;102230.28;5050057;28;20044;-79
2021/04/25 04:04:23;;;;;;;9.32;4.63;;;;;;;4.84;68.59;102240.06;5049489;28;20408;-81
2021/04/25 04:06:48;;;;;;;7.13;4.07;;;;;;;4.81;68.45;102242.91;5068898;28;20170;-78
2021/04/25 04:09:14;;;;;;;10.52;4.10;;;;;;;4.79;68.63;102242.13;5068551;28;20377;-80
2021/04/25 04:11:41;;;;;;;10.93;4.10;;;;;;;4.81;68.86;102246.41;5046863;28;20543;-85
2021/04/25 04:14:06;;;;;;;11.43;4.38;;;;;;;4.80;68.84;102241.19;5050270;28;20040;-81
2021/04/25 04:16:31;;;;;;;9.80;3.78;;;;;;;4.82;68.96;102244.59;5030644;28;20041;-78
2021/04/25 04:18:57;;;;;;;9.15;3.72;;;;;;;4.79;68.26;102247.47;5066228;28;20536;-77
2021/04/25 04:21:22;;;;;;;6.95;3.40;;;;;;;4.81;68.46;102251.75;5066487;28;20397;-81
2021/04/25 04:23:48;;;;;;;5.45;2.67;;;;;;;4.80;67.71;102249.16;5068909;28;20043;-77
2021/04/25 04:26:13;;;;;;;6.50;2.38;;;;;;;4.75;67.49;102247.63;5066403;28;20413;-82
2021/04/25 04:28:39;;;;;;;5.05;2.72;;;;;;;4.72;67.50;102247.81;5064924;28;20043;-82
2021/04/25 04:31:04;;;;;;;6.10;2.80;;;;;;;4.81;67.44;102248.22;5048046;28;20139;-81
2021/04/25 04:33:30;;;;;;;5.63;2.90;;;;;;;4.76;66.97;102243.16;5049679;28;20056;-80
2021/04/25 04:35:55;;;;;;;6.85;3.30;;;;;;;4.78;67.26;102246.59;5064746;28;20040;-79
2021/04/25 04:38:20;;;;;;;9.00;3.53;;;;;;;4.78;67.14;102251.06;5047967;28;20086;-79
2021/04/25 04:40:46;;;;;;;8.23;3.45;;;;;;;4.81;67.13;102248.22;5064446;28;20037;-76
2021/04/25 04:43:11;;;;;;;9.93;3.42;;;;;;;4.78;67.55;102251.94;5068207;28;20446;-82
2021/04/25 04:45:36;;;;;;;8.00;3.33;;;;;;;4.82;67.76;102249.94;5050826;28;20397;-85
2021/04/25 04:48:02;;;;;;;7.38;3.15;;;;;;;4.79;67.39;102247.47;5050712;28;20143;-78
2021/04/25 04:50:28;;;;;;;6.65;3.13;;;;;;;4.79;67.82;102240.31;5069791;28;20044;-80
2021/04/25 04:52:53;;;;;;;7.80;3.47;;;;;;;4.83;67.89;102246.31;5051235;28;20130;-84
2021/04/25 04:55:19;;;;;;;7.95;3.28;;;;;;;4.87;68.69;102242.53;5066173;28;20041;-81
2021/04/25 04:57:45;;;;;;;7.30;3.13;;;;;;;4.87;68.28;102239.88;5066273;28;20052;-79
2021/04/25 05:00:11;;;;;;;5.45;2.95;;;;;;;4.88;68.34;102244.25;5065667;28;20045;-77
2021/04/25 05:02:36;;;;;;;9.32;3.53;;;;;;;4.88;68.25;102249.56;5048679;28;20040;-84
2021/04/25 05:05:03;;;;;;;7.90;4.10;;;;;;;4.90;68.38;102245.00;5043602;28;20094;-81
2021/04/25 05:07:28;;;;;;;9.25;4.05;;;;;;;4.94;68.46;102247.38;5042736;28;20400;-81
2021/04/25 05:09:54;;;;;;;7.70;3.67;;;;;;;4.91;68.52;102244.06;5044009;28;20166;-78
2021/04/25 05:12:19;;;;;;;8.55;3.53;;;;;;;4.90;68.24;102248.53;5067035;28;20051;-77
2021/04/25 05:14:45;;;;;;;6.90;3.38;;;;;;;4.98;68.25;102243.59;5064779;28;20047;-77
2021/04/25 05:17:10;;;;;;;9.18;3.92;;;;;;;5.02;67.73;102249.59;5042744;28;20036;-83
2021/04/25 05:19:35;;;;;;;9.82;3.63;;;;;;;4.97;68.01;102259.66;5046995;28;20127;-84
2021/04/25 05:22:01;;;;;;;8.65;3.60;;;;;;;4.95;68.15;102249.13;5066717;28;20044;-80
2021/04/25 05:24:26;;;;;;;8.35;3.70;;;;;;;4.98;68.17;102253.41;5046297;28;20052;-78
2021/04/25 05:26:52;;;;;;;6.80;3.33;;;;;;;5.05;68.37;102253.88;5065663;28;20035;-78
2021/04/25 05:29:17;;;;;;;8.38;4.07;;;;;;;5.05;68.43;102257.38;5059289;28;20083;-82
2021/04/25 05:31:44;;;;;;;7.32;4.40;;;;;;;5.05;68.69;102253.88;5014366;28;20106;-81
2021/04/25 05:34:10;;;;;;;8.40;3.58;;;;;;;5.07;68.09;102250.19;5046528;28;20044;-78
2021/04/25 05:36:36;;;;;;;8.82;4.10;;;;;;;5.10;68.21;102252.66;5047204;28;20396;-81
2021/04/25 05:39:02;;;;;;;6.93;3.85;;;;;;;5.07;68.29;102252.84;5064790;28;20045;-80
2021/04/25 05:41:28;;;;;;;8.13;3.60;;;;;;;5.14;68.16;102258.63;5013120;28;20582;-82
2021/04/25 05:43:53;;;;;;;8.48;3.90;;;;;;;5.17;67.51;102256.63;5065114;28;20048;-80
2021/04/25 05:46:19;;;;;;;7.97;4.20;;;;;;;5.18;67.76;102266.34;5061285;28;20039;-81
2021/04/25 05:48:45;;;;;;;8.80;4.10;;;;;;;5.16;67.82;102260.25;5046424;28;20036;-78
2021/04/25 05:51:11;;;;;;;10.32;3.72;;;;;;;5.18;67.37;102261.03;5065222;28;20059;-79
2021/04/25 05:53:36;;;;;;;9.32;3.70;;;;;;;5.20;67.74;102266.22;5046984;28;20044;-82
2021/04/25 05:56:02;;;;;;;7.65;3.92;;;;;;;5.24;67.99;102274.91;5046095;28;20028;-76
2021/04/25 05:58:27;;;;;;;8.85;3.63;;;;;;;5.26;67.79;102267.66;5061072;28;20048;-80
2021/04/25 06:00:53;;;;;;;8.77;3.53;;;;;;;5.28;67.19;102268.44;5046171;28;20056;-82
2021/04/25 06:03:18;;;;;;;9.40;3.70;;;;;;;5.30;67.75;102266.56;5045555;28;20087;-81
2021/04/25 06:05:43;;;;;;;8.73;3.65;;;;;;;5.38;67.67;102274.91;5068015;28;20067;-79
2021/04/25 06:08:09;;;;;;;9.82;3.83;;;;;;;5.35;66.21;102277.75;5050785;28;20132;-80
2021/04/25 06:10:34;;;;;;;11.27;4.22;;;;;;;5.33;66.25;102274.34;5047949;28;20041;-77
2021/04/25 06:13:00;;;;;;;8.13;3.60;;;;;;;5.40;66.65;102286.31;5047348;28;20040;-77
2021/04/25 06:15:25;;;;;;;10.10;4.38;;;;;;;5.45;66.46;102284.22;5064688;28;20489;-76
2021/04/25 06:17:52;;;;;;;6.63;3.03;;;;;;;5.48;66.03;102278.72;5048356;28;20043;-83
2021/04/25 06:20:19;;;;;;;7.82;3.25;;;;;;;5.47;66.37;102271.69;5065278;28;20033;-78
2021/04/25 06:22:45;;;;;;;9.98;3.63;;;;;;;5.48;65.77;102283.19;5070618;28;20051;-78
2021/04/25 06:25:12;;;;;;;9.13;3.83;;;;;;;5.50;65.90;102268.84;5049663;28;20045;-81
2021/04/25 06:27:38;;;;;;;5.90;3.38;;;;;;;5.56;66.57;102281.75;5066959;28;20040;-80
2021/04/25 06:30:04;;;;;;;8.43;3.65;;;;;;;5.59;65.92;102286.91;5067605;28;20520;-81
2021/04/25 06:32:30;;;;;;;9.55;3.65;;;;;;;5.69;66.00;102291.66;5049311;28;20060;-78
2021/04/25 06:34:56;;;;;;;12.25;4.78;;;;;;;5.69;65.77;102296.97;5049879;28;20527;-77
2021/04/25 06:37:21;;;;;;;8.32;3.95;;;;;;;5.76;65.98;102298.31;5065454;28;20040;-78
2021/04/25 06:39:46;;;;;;;7.95;3.38;;;;;;;5.83;66.33;102296.97;5048682;28;20075;-76
2021/04/25 06:42:12;;;;;;;6.05;2.97;;;;;;;5.81;66.05;102299.75;5033811;28;20071;-80
2021/04/25 06:44:37;;;;;;;7.55;4.28;;;;;;;5.83;65.57;102299.63;5031236;28;20064;-82
2021/04/25 06:47:03;;;;;;;9.13;3.83;;;;;;;5.89;65.25;102304.56;5040062;28;20048;-79
2021/04/25 06:49:28;;;;;;;7.75;3.22;;;;;;;5.83;65.62;102303.13;5044078;28;20052;-81
2021/04/25 06:51:54;;;;;;;9.30;4.30;;;;;;;5.91;65.57;102302.66;5048466;28;20105;-78
2021/04/25 06:54:20;;;;;;;7.25;2.95;;;;;;;5.90;65.17;102306.28;5052700;28;20505;-77
2021/04/25 06:56:46;;;;;;;8.45;4.78;;;;;;;5.95;65.46;102304.19;5050766;28;20078;-78
2021/04/25 06:59:11;;;;;;;14.30;4.55;;;;;;;5.95;65.29;102303.34;5062705;28;20036;-78
2021/04/25 07:01:36;;;;;;;6.93;3.38;;;;;;;6.00;65.42;102317.25;5050588;28;20063;-77
2021/04/25 07:04:02;;;;;;;9.45;5.18;;;;;;;6.00;65.34;102317.25;5052170;28;20041;-82
2021/04/25 07:06:28;;;;;;;9.90;4.05;;;;;;;5.96;65.25;102326.41;5050906;28;20170;-77
2021/04/25 07:08:53;;;;;;;8.27;3.50;;;;;;;5.98;64.86;102321.81;5045498;28;20210;-81
2021/04/25 07:11:19;;;;;;;8.55;4.72;;;;;;;5.96;65.19;102319.25;5032352;28;20040;-84
2021/04/25 07:13:44;;;;;;;8.73;3.90;;;;;;;5.98;64.81;102316.47;5035795;28;20170;-81
2021/04/25 07:16:09;;;;;;;10.00;4.00;;;;;;;6.03;65.17;102328.56;5052234;28;20143;-78
2021/04/25 07:18:35;;;;;;;6.75;3.90;;;;;;;6.05;65.20;102307.16;5065307;28;20044;-80
2021/04/25 07:21:00;;;;;;;8.98;3.63;;;;;;;6.06;64.92;102320.38;5042799;28;20084;-81
2021/04/25 07:23:26;;;;;;;8.48;4.15;;;;;;;6.09;65.10;102322.00;5068687;28;20044;-84
2021/04/25 07:25:56;;;;;;;7.15;3.60;;;;;;;6.07;64.96;102319.44;5069380;28;20032;-79
2021/04/25 07:28:23;;;;;;;11.80;6.03;;;;;;;6.10;64.70;102321.91;5069878;28;20045;-77
2021/04/25 07:30:49;;;;;;;9.10;4.18;;;;;;;6.14;64.90;102319.03;5028263;28;20056;-78
2021/04/25 07:33:18;;;;;;;5.70;3.45;;;;;;;6.13;64.95;102314.63;5068987;28;20045;-83
2021/04/25 07:35:45;;;;;;;7.90;3.63;;;;;;;6.19;65.00;102316.94;5067704;28;20055;-77
2021/04/25 07:38:11;;;;;;;8.65;3.25;;;;;;;6.28;65.08;102317.19;5052248;28;20163;-78
2021/04/25 07:40:38;;;;;;;8.73;3.25;;;;;;;6.29;65.43;102323.38;5071091;28;20147;-83
2021/04/25 07:43:03;;;;;;;10.35;3.63;;;;;;;6.32;64.88;102321.34;5048206;28;20507;-82
2021/04/25 07:45:29;;;;;;;7.35;3.08;;;;;;;6.39;64.41;102326.28;5052638;28;20072;-78
2021/04/25 07:47:54;;;;;;;8.50;3.40;;;;;;;6.31;63.91;102317.00;5049250;28;20270;-78
2021/04/25 07:50:20;;;;;;;7.07;3.17;;;;;;;6.39;63.75;102324.50;5034135;28;20140;-82
2021/04/25 07:52:45;;;;;;;7.38;3.35;;;;;;;6.49;63.43;102314.94;5052795;28;20041;-83
2021/04/25 07:55:11;;;;;;;7.38;3.30;;;;;;;6.55;62.78;102311.84;5070531;28;20505;-81
2021/04/25 07:57:37;;;;;;;6.10;2.83;;;;;;;6.54;62.81;102323.50;5037061;28;20041;-78
2021/04/25 08:00:07;;;;;;;8.35;3.20;;;;;;;6.58;62.80;102323.28;5050451;28;20032;-78
2021/04/25 08:02:33;;;;;;;8.05;3.03;;;;;;;6.58;63.18;102328.63;5056925;28;20037;-81
2021/04/25 08:04:58;;;;;;;7.03;3.13;;;;;;;6.62;63.35;102324.78;5065657;28;20052;-83
2021/04/25 08:07:25;;;;;;;6.20;2.80;;;;;;;6.63;62.67;102331.84;5070296;28;20029;-79
2021/04/25 08:09:50;;;;;;;12.55;3.35;;;;;;;6.59;62.42;102327.66;5052249;28;20056;-80
2021/04/25 08:12:16;;;;;;;6.80;3.42;;;;;;;6.62;62.82;102330.13;5053841;28;20037;-79
2021/04/25 08:14:41;;;;;;;7.72;2.92;;;;;;;6.61;62.13;102321.28;5051974;28;20067;-82
2021/04/25 08:17:06;;;;;;;11.13;3.28;;;;;;;6.55;62.15;102335.00;5056124;28;20495;-80
2021/04/25 08:19:32;;;;;;;11.77;3.25;;;;;;;6.52;62.01;102328.06;5053513;28;20101;-77
2021/04/25 08:21:57;;;;;;;11.07;3.47;;;;;;;6.59;61.44;102330.31;5063601;28;20037;-79
2021/04/25 08:24:23;;;;;;;5.40;2.55;;;;;;;6.47;62.34;102323.97;5053273;28;20033;-81
2021/04/25 08:26:49;;;;;;;8.43;3.13;;;;;;;6.55;62.72;102324.34;5030705;28;20139;-77
2021/04/25 08:29:14;;;;;;;8.88;3.30;;;;;;;6.57;62.42;102338.44;5054393;28;20044;-82
2021/04/25 08:31:40;;;;;;;8.35;3.20;;;;;;;6.62;62.03;102335.47;5030105;28;20526;-78
2021/04/25 08:34:05;;;;;;;9.30;3.00;;;;;;;6.67;62.31;102330.69;5036563;28;20044;-78
2021/04/25 08:36:31;;;;;;;6.82;2.90;;;;;;;6.72;61.96;102336.56;5038406;28;20473;-82
2021/04/25 08:38:56;;;;;;;8.63;3.05;;;;;;;6.70;61.85;102342.03;5069717;28;20033;-78
2021/04/25 08:41:23;;;;;;;8.85;3.40;;;;;;;6.72;62.20;102339.25;5069465;28;20041;-80
2021/04/25 08:43:49;;;;;;;11.25;3.03;;;;;;;6.88;62.26;102339.94;5068638;28;20039;-87
2021/04/25 08:46:19;;;;;;;6.50;2.75;;;;;;;6.92;60.61;102333.44;5070564;28;20067;-83
2021/04/25 08:48:48;;;;;;;7.18;3.20;;;;;;;6.89;60.93;102327.44;5043535;28;20079;-81
2021/04/25 08:51:14;;;;;;;7.28;3.03;;;;;;;6.90;60.88;102343.34;5068702;28;20047;-79
2021/04/25 08:53:40;;;;;;;7.40;3.22;;;;;;;6.91;61.03;102330.88;5052763;28;20057;-81
2021/04/25 08:56:06;;;;;;;9.98;3.33;;;;;;;6.98;61.15;102333.00;5068451;28;20094;-82
2021/04/25 08:58:33;;;;;;;10.93;3.30;;;;;;;6.96;61.34;102332.28;5063156;28;20083;-78
2021/04/25 09:00:58;;;;;;;7.47;3.22;;;;;;;6.93;61.81;102327.16;5067404;28;20044;-76
2021/04/25 09:03:24;;;;;;;9.05;3.25;;;;;;;7.02;61.44;102339.03;5031600;28;20052;-79
2021/04/25 09:05:50;;;;;;;8.55;3.17;;;;;;;7.10;60.61;102322.47;5044004;28;20131;-84
2021/04/25 09:08:15;;;;;;;12.90;3.30;;;;;;;7.07;60.97;102338.69;5065431;28;20049;-81
2021/04/25 09:10:43;;;;;;;11.20;3.05;;;;;;;7.19;60.91;102328.06;5065222;28;20040;-86
2021/04/25 09:13:20;;;;;;;8.13;3.13;;;;;;;7.36;61.33;102334.03;5050828;28;20037;-85
2021/04/25 09:15:47;;;;;;;7.32;2.85;;;;;;;7.41;61.18;102338.09;5068041;28;20044;-81
2021/04/25 09:18:13;;;;;;;6.68;2.80;;;;;;;7.51;61.18;102324.09;5049022;28;20041;-82
2021/04/25 09:20:46;;;;;;;11.73;2.80;;;;;;;7.64;59.50;102332.97;5050526;28;20155;-78
2021/04/25 09:23:32;;;;;;;7.45;4.03;;;;;;;7.67;60.46;102332.75;5067677;28;20100;-75
2021/04/25 09:26:00;;;;;;;8.25;2.75;;;;;;;7.73;60.29;102328.81;5051249;28;20051;-79
2021/04/25 09:28:25;;;;;;;10.10;3.90;;;;;;;7.68;59.82;102329.09;5070959;28;20102;-77
2021/04/25 09:30:57;;;;;;;8.30;2.92;;;;;;;7.60;60.03;102324.31;5068004;28;20048;-85
2021/04/25 09:33:26;;;;;;;6.88;3.00;;;;;;;7.73;58.90;102320.78;5048212;28;20481;-85
2021/04/25 09:35:53;;;;;;;8.20;3.38;;;;;;;7.64;59.88;102324.97;5043821;28;20047;-80
2021/04/25 09:38:19;;;;;;;12.05;2.85;;;;;;;7.79;59.38;102331.88;5058155;28;20086;-81
2021/04/25 09:40:48;;;;;;;11.43;5.80;;;;;;;7.86;59.16;102327.81;5065029;28;20435;-82
2021/04/25 09:43:14;;;;;;;11.95;4.30;;;;;;;7.83;59.25;102325.38;5066956;28;20041;-80
2021/04/25 09:45:51;;;;;;;11.82;5.70;;;;;;;7.72;58.68;102314.59;5043274;28;20043;-84
2021/04/25 09:48:28;;;;;;;10.35;3.70;;;;;;;7.73;59.71;102318.13;5051292;28;20082;-79
2021/04/25 09:51:23;;;;;;;6.75;2.70;;;;;;;7.87;59.83;102315.31;5068886;28;20048;-79
2021/04/25 09:53:54;;;;;;;10.65;2.78;;;;;;;7.93;60.83;102311.34;5039727;28;20045;-86
2021/04/25 09:56:22;;;;;;;9.48;3.05;;;;;;;8.10;59.55;102310.97;5067881;28;20059;-80
2021/04/25 09:58:57;;;;;;;7.78;3.05;;;;;;;8.20;57.61;102305.81;5065876;28;20048;-80
2021/04/25 10:01:31;;;;;;;11.98;6.60;;;;;;;8.12;57.59;102319.75;5052021;28;20079;-79
2021/04/25 10:03:59;;;;;;;8.05;3.42;;;;;;;8.16;57.81;102299.84;5050507;28;20043;-84
2021/04/25 10:06:25;;;;;;;12.57;2.67;;;;;;;8.26;58.06;102306.25;5068788;28;20036;-80
2021/04/25 10:08:52;;;;;;;8.07;2.63;;;;;;;8.23;56.99;102306.47;5064345;28;20124;-87
2021/04/25 10:11:20;;;;;;;7.55;2.60;;;;;;;8.22;57.00;102304.75;5037108;28;20040;-76
2021/04/25 10:13:47;;;;;;;8.75;2.38;;;;;;;8.35;56.86;102308.22;5050923;28;20055;-85
2021/04/25 10:16:17;;;;;;;9.68;2.72;;;;;;;8.29;55.75;102300.66;5057054;28;20036;-86
2021/04/25 10:18:43;;;;;;;7.53;2.97;;;;;;;8.28;55.63;102306.97;5064264;28;20127;-81
2021/04/25 10:21:09;;;;;;;9.88;2.72;;;;;;;8.39;55.62;102308.03;5067496;28;20560;-80
2021/04/25 10:23:35;;;;;;;7.80;2.60;;;;;;;8.51;56.15;102293.75;5028028;28;20051;-79
2021/04/25 10:26:07;;;;;;;8.90;2.90;;;;;;;8.53;55.69;102292.66;5067216;28;20124;-80
2021/04/25 10:28:53;;;;;;;11.27;2.90;;;;;;;8.56;55.69;102296.94;5050405;28;20048;-79
2021/04/25 10:31:26;;;;;;;10.13;3.03;;;;;;;8.63;56.83;102287.50;5050788;28;20052;-87
2021/04/25 10:34:03;;;;;;;10.27;3.15;;;;;;;8.61;55.90;102285.91;5068898;28;20489;-84
2021/04/25 10:36:46;;;;;;;8.38;2.33;;;;;;;8.89;54.84;102276.63;5066521;28;20067;-84
2021/04/25 10:39:49;;;;;;;9.88;3.03;;;;;;;8.76;54.93;102280.22;5064511;28;20056;-81
2021/04/25 10:42:17;;;;;;;5.55;2.67;;;;;;;8.88;55.60;102282.94;5064347;28;20032;-80
2021/04/25 10:45:05;;;;;;;7.35;3.10;;;;;;;8.87;54.63;102292.81;5065304;28;20056;-84
2021/04/25 10:47:33;;;;;;;7.60;3.25;;;;;;;9.07;55.02;102291.28;5065472;28;20044;-83
2021/04/25 10:50:00;;;;;;;9.18;2.97;;;;;;;9.09;54.64;102280.44;5050383;28;20032;-82
2021/04/25 10:52:28;;;;;;;8.15;2.55;;;;;;;9.10;54.04;102274.97;5050476;28;20135;-80
2021/04/25 10:55:17;;;;;;;5.95;2.70;;;;;;;9.23;54.34;102275.72;5047529;28;20070;-81
2021/04/25 10:57:55;;;;;;;9.52;3.28;;;;;;;9.29;53.73;102277.06;5049128;28;20071;-79
2021/04/25 11:00:42;;;;;;;9.05;3.03;;;;;;;9.29;55.13;102276.22;5069142;28;20115;-79
2021/04/25 11:03:19;;;;;;;8.02;2.53;;;;;;;9.31;54.59;102272.44;5069824;28;20430;-76
2021/04/25 11:05:51;;;;;;;7.60;2.80;;;;;;;9.37;55.26;102279.16;5061639;28;20444;-78
2021/04/25 11:08:16;;;;;;;9.60;2.90;;;;;;;9.31;53.55;102275.13;5067362;28;20413;-82
2021/04/25 11:11:00;;;;;;;8.18;2.47;;;;;;;9.30;54.07;102267.22;5053215;28;20040;-80
2021/04/25 11:13:34;;;;;;;8.48;2.95;;;;;;;9.20;54.41;102272.44;5055396;28;20045;-76
2021/04/25 11:16:09;;;;;;;6.35;2.83;;;;;;;9.24;54.13;102256.00;5053390;28;20135;-84
2021/04/25 11:19:05;;;;;;;6.60;2.58;;;;;;;9.42;54.70;102264.44;5034548;28;20032;-79
2021/04/25 11:21:32;;;;;;;5.18;2.20;;;;;;;9.59;54.29;102249.69;5022237;28;20048;-81
2021/04/25 11:24:04;;;;;;;11.85;3.20;;;;;;;9.54;54.76;102259.91;5054983;28;20040;-84
2021/04/25 11:26:36;;;;;;;9.27;2.63;;;;;;;9.71;53.77;102270.16;5059664;28;20075;-77
2021/04/25 11:29:10;;;;;;;6.38;2.65;;;;;;;9.72;53.03;102260.28;5074218;28;20102;-85